Artesia, California
Current Conditions -  °F | °C
As of 1:53 AM on Wednesday 26 Nov 2014 (Local Time) from KFUL Reporting Station
Clear Clear  
Wind Chill: 11°   Ceiling: Unl
Heat Index: 11°   Visibility: 10mi
Dew Point:   Wind: 0mph
Humidity: 50%   Direction: NA
Pressure: 30.23"   Gusts: NA
Location:  33.86°N, 118.07°W
Report Text: KFUL 260953Z 00000KT 10SM CLR 11/01 A3023 RMK AO2 SLP235 T01110011
Loading
Personal Weather Stations






























Interactive Weather Map New forecast layout! Learn more

10-Day Weather Forecast

Advertisements
Track Severe Weather on mobile